createdAt,value
2019-05-26T00:00:12.253Z,86.50
2019-05-26T00:05:15.815Z,87.20
2019-05-26T00:10:20.165Z,88.05
2019-05-26T00:15:23.572Z,87.32
2019-05-26T00:20:26.996Z,87.42
2019-05-26T00:25:30.788Z,85.70
2019-05-26T00:30:34.227Z,84.99
2019-05-26T00:35:37.711Z,86.47
2019-05-26T00:40:41.149Z,88.45
2019-05-26T00:45:44.929Z,88.28
2019-05-26T00:50:48.375Z,91.41
2019-05-26T00:55:51.870Z,94.54
2019-05-26T01:00:55.318Z,92.65
2019-05-26T01:05:59.157Z,90.34
2019-05-26T01:11:02.638Z,91.27
2019-05-26T01:16:06.063Z,89.72
2019-05-26T01:21:09.484Z,91.83
2019-05-26T01:26:12.899Z,91.79
2019-05-26T01:31:16.394Z,91.23
2019-05-26T01:36:20.163Z,89.75
2019-05-26T01:41:23.611Z,92.83
2019-05-26T01:46:27.025Z,92.29
2019-05-26T01:51:30.442Z,92.86
2019-05-26T01:56:33.909Z,96.19
2019-05-26T02:01:37.463Z,94.78
2019-05-26T02:06:40.865Z,95.96
2019-05-26T02:11:44.285Z,93.34
2019-05-26T02:16:47.878Z,92.77
2019-05-26T02:21:51.315Z,94.40
2019-05-26T02:26:54.736Z,94.97
2019-05-26T02:31:58.178Z,96.41
2019-05-26T02:37:01.604Z,96.16
2019-05-26T02:42:05.483Z,96.67
2019-05-26T02:47:08.970Z,95.94
2019-05-26T02:52:12.434Z,94.62
2019-05-26T02:57:16.150Z,95.79
2019-05-26T03:02:19.830Z,95.27
2019-05-26T03:07:25.936Z,94.78
2019-05-26T03:12:30.754Z,95.30
2019-05-26T03:17:34.629Z,93.38
2019-05-26T03:22:41.736Z,93.54
2019-05-26T03:27:45.225Z,95.89
2019-05-26T03:32:48.663Z,92.54
2019-05-26T03:37:52.101Z,93.55
2019-05-26T03:42:55.538Z,94.28
2019-05-26T03:47:58.990Z,95.67
2019-05-26T03:53:02.476Z,94.84
2019-05-26T03:58:05.893Z,97.34
2019-05-26T04:03:09.312Z,98.00
2019-05-26T04:08:12.779Z,96.44
2019-05-26T04:13:16.260Z,98.09
2019-05-26T04:18:19.701Z,95.74
2019-05-26T04:23:23.188Z,96.64
2019-05-26T04:28:26.645Z,94.31
2019-05-26T04:33:30.068Z,95.17
2019-05-26T04:38:33.472Z,95.87
2019-05-26T04:43:36.972Z,95.79
2019-05-26T04:48:41.016Z,97.39
2019-05-26T04:53:44.392Z,97.05
2019-05-26T04:58:47.815Z,97.32
2019-05-26T05:03:51.252Z,94.78
2019-05-26T05:08:54.744Z,95.02
2019-05-26T05:13:58.184Z,94.44
2019-05-26T05:19:01.683Z,94.21
2019-05-26T05:24:05.297Z,92.77
2019-05-26T05:29:08.724Z,92.65
2019-05-26T05:34:12.157Z,92.41
2019-05-26T05:39:15.581Z,92.68
2019-05-26T05:44:19.011Z,92.58
2019-05-26T05:49:22.457Z,90.42
2019-05-26T05:54:25.941Z,89.93
2019-05-26T05:59:29.382Z,89.40
2019-05-26T06:04:32.811Z,90.79
2019-05-26T06:09:36.250Z,88.89
2019-05-26T06:14:40.059Z,88.37
2019-05-26T06:19:43.577Z,89.19
2019-05-26T06:24:47.084Z,87.15
2019-05-26T06:29:58.697Z,87.00
2019-05-26T06:34:55.814Z,84.03
2019-05-26T06:39:59.331Z,83.46
2019-05-26T06:45:02.784Z,82.63
2019-05-26T06:50:06.769Z,80.08
2019-05-26T06:55:10.562Z,78.33
2019-05-26T07:00:15.379Z,75.74
2019-05-26T07:05:18.905Z,76.45
2019-05-26T07:10:22.411Z,76.14
2019-05-26T07:15:25.977Z,76.40
2019-05-26T07:20:29.477Z,73.07
2019-05-26T07:25:33.570Z,72.79
2019-05-26T07:30:37.145Z,70.92
2019-05-26T07:35:40.656Z,70.53
2019-05-26T07:45:46.495Z,70.35
2019-05-26T07:50:50.001Z,72.14
2019-05-26T07:55:53.502Z,70.67
2019-05-26T08:00:56.973Z,69.86
2019-05-26T08:06:00.431Z,68.03
2019-05-26T08:11:03.864Z,69.39
2019-05-26T08:16:07.471Z,68.50
2019-05-26T08:21:10.925Z,65.39
2019-05-26T08:26:15.161Z,65.83
2019-05-26T08:31:18.994Z,63.21
2019-05-26T08:36:22.485Z,61.73
2019-05-26T08:41:25.947Z,60.43
2019-05-26T08:46:29.384Z,60.79
2019-05-26T08:51:32.819Z,60.83
2019-05-26T08:56:36.269Z,61.08
2019-05-26T09:01:39.779Z,60.94
2019-05-26T09:06:43.194Z,59.87
2019-05-26T09:11:46.651Z,59.76
2019-05-26T09:16:50.085Z,58.99
2019-05-26T09:21:53.522Z,56.37
2019-05-26T09:26:56.960Z,58.80
2019-05-26T09:32:00.402Z,56.72
2019-05-26T09:37:03.833Z,58.30
2019-05-26T09:42:07.263Z,59.16
2019-05-26T09:47:10.689Z,58.29
2019-05-26T09:52:14.188Z,59.40
2019-05-26T09:57:17.684Z,58.65
2019-05-26T10:02:21.110Z,56.87
2019-05-26T10:07:24.526Z,57.29
2019-05-26T10:12:27.967Z,57.39
2019-05-26T10:17:31.406Z,56.42
2019-05-26T10:22:34.903Z,55.90
2019-05-26T10:27:42.167Z,55.08
2019-05-26T10:32:45.769Z,54.37
2019-05-26T10:37:49.185Z,56.25
2019-05-26T10:42:52.608Z,54.47
2019-05-26T10:47:56.064Z,54.00
2019-05-26T10:52:59.498Z,52.99
2019-05-26T10:58:03.024Z,52.76
2019-05-26T11:03:06.474Z,52.76
2019-05-26T11:08:09.900Z,49.48
2019-05-26T11:13:13.333Z,47.90
2019-05-26T11:18:16.728Z,48.81
2019-05-26T11:23:20.169Z,47.77
2019-05-26T11:28:23.597Z,47.84
2019-05-26T11:33:27.047Z,45.63
2019-05-26T11:38:33.463Z,45.44
2019-05-26T11:43:35.621Z,44.86
2019-05-26T11:48:39.542Z,44.86
2019-05-26T11:53:43.139Z,44.79
2019-05-26T11:58:46.591Z,45.60
2019-05-26T12:03:50.025Z,45.05
2019-05-26T12:08:53.500Z,44.89
2019-05-26T12:13:56.942Z,44.38
2019-05-26T12:19:00.369Z,45.40
2019-05-26T12:24:03.922Z,46.02
2019-05-26T12:29:07.307Z,45.65
2019-05-26T12:34:10.727Z,42.58
2019-05-26T12:39:14.150Z,45.20
2019-05-26T12:44:17.598Z,45.97
2019-05-26T12:49:21.031Z,46.76
2019-05-26T12:54:24.455Z,46.93
2019-05-26T12:59:27.916Z,45.38
2019-05-26T13:04:31.352Z,46.16
2019-05-26T13:09:34.805Z,45.99
2019-05-26T13:14:38.244Z,45.19
2019-05-26T13:19:41.674Z,46.39
2019-05-26T13:24:45.081Z,45.27
2019-05-26T13:29:48.933Z,45.46
2019-05-26T13:34:52.320Z,47.17
2019-05-26T13:39:55.822Z,47.01
2019-05-26T13:44:59.250Z,46.92
2019-05-26T13:50:02.763Z,47.03
2019-05-26T13:55:08.343Z,45.91
2019-05-26T14:00:15.411Z,45.58
2019-05-26T14:05:19.215Z,45.67
2019-05-26T14:10:31.575Z,45.16
2019-05-26T14:15:38.812Z,45.82
2019-05-26T14:20:41.559Z,43.96
2019-05-26T14:25:44.979Z,45.11
2019-05-26T14:30:48.474Z,45.65
2019-05-26T14:35:51.955Z,45.78
2019-05-26T14:40:55.355Z,46.09
2019-05-26T14:45:58.751Z,47.12
2019-05-26T14:51:02.183Z,47.66
2019-05-26T14:56:05.592Z,49.47
2019-05-26T15:01:09.028Z,48.65
2019-05-26T15:06:12.466Z,48.97
2019-05-26T15:11:15.881Z,51.31
2019-05-26T15:16:19.302Z,50.52
2019-05-26T15:21:22.723Z,51.40
2019-05-26T15:26:26.150Z,52.09
2019-05-26T15:31:29.568Z,53.53
2019-05-26T15:36:32.993Z,54.17
2019-05-26T15:41:37.346Z,53.75
2019-05-26T15:46:40.883Z,53.74
2019-05-26T15:51:44.391Z,54.54
2019-05-26T15:56:47.808Z,54.54
2019-05-26T16:01:51.452Z,54.67
2019-05-26T16:06:54.912Z,53.90
2019-05-26T16:17:19.588Z,55.30
2019-05-26T16:22:23.111Z,54.95
2019-05-26T16:27:26.550Z,54.96
2019-05-26T16:32:29.983Z,55.40
2019-05-26T16:37:33.539Z,55.03
2019-05-26T16:42:36.986Z,53.78
2019-05-26T16:47:40.394Z,54.46
2019-05-26T16:52:43.809Z,55.53
2019-05-26T16:57:47.243Z,55.50
2019-05-26T17:02:50.685Z,55.94
2019-05-26T17:07:54.121Z,55.25
2019-05-26T17:12:57.552Z,55.52
2019-05-26T17:18:00.976Z,55.93
2019-05-26T17:23:04.456Z,56.17
2019-05-26T17:28:07.893Z,57.33
2019-05-26T17:33:12.910Z,57.33
2019-05-26T17:38:16.428Z,58.55
2019-05-26T17:43:19.858Z,58.55
2019-05-26T17:48:23.962Z,58.36
2019-05-26T17:53:27.454Z,58.36
2019-05-26T17:58:30.866Z,59.43
2019-05-26T18:03:34.289Z,59.86
2019-05-26T18:08:37.770Z,59.86
2019-05-26T18:13:41.195Z,60.44
2019-05-26T18:18:44.616Z,60.91
2019-05-26T18:23:48.057Z,59.84
2019-05-26T18:28:51.460Z,58.47
2019-05-26T18:33:54.885Z,58.69
2019-05-26T18:38:58.302Z,59.03
2019-05-26T18:44:01.732Z,59.03
2019-05-26T18:49:05.319Z,59.14
2019-05-26T18:54:08.833Z,60.11
2019-05-26T18:59:12.277Z,60.70
2019-05-26T19:04:16.019Z,61.49
2019-05-26T19:09:19.444Z,61.58
2019-05-26T19:14:22.887Z,62.64
2019-05-26T19:19:26.385Z,63.50
2019-05-26T19:24:29.811Z,64.31
2019-05-26T19:29:33.282Z,64.83
2019-05-26T19:34:36.736Z,65.07
2019-05-26T19:39:40.145Z,65.99
2019-05-26T19:44:43.582Z,66.31
2019-05-26T19:49:47.008Z,66.37
2019-05-26T19:54:50.463Z,66.78
2019-05-26T19:59:54.271Z,66.85
2019-05-26T20:04:57.687Z,66.95
2019-05-26T20:10:01.525Z,67.47
2019-05-26T20:15:07.976Z,67.67
2019-05-26T20:20:12.505Z,67.87
2019-05-26T20:25:17.086Z,68.58
2019-05-26T20:30:22.866Z,68.45
2019-05-26T20:35:26.488Z,68.95
2019-05-26T20:40:29.983Z,69.51
2019-05-26T20:45:33.407Z,70.34
2019-05-26T20:50:36.869Z,70.54
2019-05-26T20:55:40.336Z,70.81
2019-05-26T21:00:43.762Z,71.31
2019-05-26T21:05:47.413Z,71.78
2019-05-26T21:10:50.833Z,71.51
2019-05-26T21:15:54.269Z,72.42
2019-05-26T21:20:57.717Z,72.45
2019-05-26T21:26:01.181Z,73.32
2019-05-26T21:31:04.615Z,73.38
2019-05-26T21:36:08.158Z,73.49
2019-05-26T21:41:11.571Z,73.32
2019-05-26T21:46:15.328Z,73.57
2019-05-26T21:51:18.823Z,73.39
2019-05-26T21:56:22.264Z,73.56
2019-05-26T22:01:25.789Z,73.24
2019-05-26T22:06:29.260Z,73.65
2019-05-26T22:11:32.703Z,73.66
2019-05-26T22:16:36.142Z,73.48
2019-05-26T22:21:39.622Z,73.26
2019-05-26T22:26:43.068Z,73.73
2019-05-26T22:31:46.495Z,73.92
2019-05-26T22:36:49.927Z,74.60
2019-05-26T22:41:53.348Z,73.92
2019-05-26T22:46:56.774Z,73.29
2019-05-26T22:52:00.198Z,73.12
2019-05-26T22:57:03.639Z,72.18
2019-05-26T23:02:07.733Z,71.54
2019-05-26T23:07:11.098Z,72.30
2019-05-26T23:12:14.509Z,71.43
2019-05-26T23:17:17.927Z,72.25
2019-05-26T23:22:21.361Z,72.05
2019-05-26T23:27:24.793Z,71.56
2019-05-26T23:32:28.214Z,72.61
2019-05-26T23:37:31.639Z,72.89
2019-05-26T23:42:35.139Z,72.73
2019-05-26T23:47:38.582Z,72.97
2019-05-26T23:52:42.016Z,73.13
2019-05-26T23:57:45.470Z,73.20
